Latest Weather Observations for Ocean Reef

IDW60801

Issued at 11:43 am WST Saturday 22 February 2020 (issued every 10 minutes, with the page automatically refreshed every 10 minutes)

About weather observations | Map of weather stations | Latest weather observations for WA | Other Formats
Station Details ID: 009214 Name: OCEAN REEF Lat: -31.76 Lon: 115.73 Height: 10.0 m
Data from the previous 72 hours. | See also: Recent months at Ocean Reef
Date/Time
WST
Temp
°C
App
Temp
°C
Dew
Point
°C
Rel
Hum
%
Delta-T
°C
Wind Press
QNH
hPa
Press
MSL
hPa
Rain since
9am
mm
Dir  Spd
km/h
Gust
km/h
Spd
kts
Gust
kts
22/11:30am - - - - - ENE 20 32 11 17 - - -
22/11:00am - - - - - ENE 17 22 9 12 - - -
22/10:30am - - - - - ENE 17 22 9 12 - - -
22/10:00am - - - - - E 11 19 6 10 - - -
22/09:30am - - - - - E 13 17 7 9 - - -
22/09:00am - - - - - ENE 13 19 7 10 - - -
22/08:30am - - - - - NE 17 22 9 12 - - -
22/08:00am - - - - - NE 22 32 12 17 - - -
22/07:30am - - - - - NE 24 30 13 16 - - -
22/07:00am - - - - - NE 26 33 14 18 - - -
22/06:30am - - - - - NE 20 26 11 14 - - -
22/06:00am - - - - - NE 19 24 10 13 - - -
22/05:30am - - - - - NE 15 20 8 11 - - -
22/05:00am - - - - - NNE 15 20 8 11 - - -
22/04:30am - - - - - N 9 11 5 6 - - -
22/04:00am - - - - - NNW 17 20 9 11 - - -
22/03:30am - - - - - N 11 15 6 8 - - -
22/03:00am - - - - - E 11 11 6 6 - - -
22/02:30am - - - - - NNE 13 15 7 8 - - -
22/02:00am - - - - - NNE 13 15 7 8 - - -
22/01:30am - - - - - NNE 9 11 5 6 - - -
22/01:00am - - - - - NE 9 13 5 7 - - -
22/12:30am - - - - - ENE 11 17 6 9 - - -
22/12:00am - - - - - ENE 13 17 7 9 - - -
 
Date/Time
WST
Temp
°C
App
Temp
°C
Dew
Point
°C
Rel
Hum
%
Delta-T
°C
Wind Press
QNH
hPa
Press
MSL
hPa
Rain since
9am
mm
Dir  Spd
km/h
Gust
km/h
Spd
kts
Gust
kts
21/11:30pm - - - - - ENE 13 19 7 10 - - -
21/11:00pm - - - - - E 13 19 7 10 - - -
21/10:30pm - - - - - ESE 13 19 7 10 - - -
21/10:00pm - - - - - ESE 15 24 8 13 - - -
21/09:30pm - - - - - ESE 17 24 9 13 - - -
21/09:00pm - - - - - ESE 17 24 9 13 - - -
21/08:30pm - - - - - SE 15 19 8 10 - - -
21/08:00pm - - - - - ESE 15 22 8 12 - - -
21/07:30pm - - - - - ESE 13 19 7 10 - - -
21/07:00pm - - - - - ESE 15 24 8 13 - - -
21/06:30pm - - - - - ESE 15 24 8 13 - - -
21/06:00pm - - - - - ESE 22 30 12 16 - - -
21/05:30pm - - - - - E 17 26 9 14 - - -
21/05:00pm - - - - - NE 13 19 7 10 - - -
21/04:30pm - - - - - NNE 22 39 12 21 - - -
21/04:00pm - - - - - E 13 22 7 12 - - -
21/03:30pm - - - - - ESE 15 20 8 11 - - -
21/03:00pm - - - - - ENE 17 28 9 15 - - -
21/02:30pm - - - - - ENE 19 33 10 18 - - -
21/02:00pm - - - - - NE 19 32 10 17 - - -
21/01:30pm - - - - - ENE 19 30 10 16 - - -
21/01:00pm - - - - - ENE 13 28 7 15 - - -
21/12:30pm - - - - - E 17 32 9 17 - - -
21/12:00pm - - - - - E 19 32 10 17 - - -
21/11:30am - - - - - ENE 22 32 12 17 - - -
21/11:00am - - - - - ENE 24 35 13 19 - - -
21/10:30am - - - - - ENE 24 35 13 19 - - -
21/10:00am - - - - - ENE 24 35 13 19 - - -
21/09:30am - - - - - NE 22 32 12 17 - - -
21/09:00am - - - - - ENE 17 30 9 16 - - -
21/08:30am - - - - - E 17 28 9 15 - - -
21/08:00am - - - - - E 13 20 7 11 - - -
21/07:30am - - - - - E 15 20 8 11 - - -
21/07:00am - - - - - E 19 28 10 15 - - -
21/06:30am - - - - - E 15 22 8 12 - - -
21/06:00am - - - - - E 19 30 10 16 - - -
21/05:30am - - - - - ENE 17 26 9 14 - - -
21/05:00am - - - - - E 19 28 10 15 - - -
21/04:30am - - - - - E 17 28 9 15 - - -
21/04:00am - - - - - E 17 28 9 15 - - -
21/03:30am - - - - - E 19 32 10 17 - - -
21/03:00am - - - - - E 20 33 11 18 - - -
21/02:30am - - - - - E 19 28 10 15 - - -
21/02:00am - - - - - E 17 22 9 12 - - -
21/01:30am - - - - - E 17 24 9 13 - - -
21/01:00am - - - - - E 11 15 6 8 - - -
21/12:30am - - - - - E 7 9 4 5 - - -
21/12:00am - - - - - NNE 9 11 5 6 - - -
 
Date/Time
WST
Temp
°C
App
Temp
°C
Dew
Point
°C
Rel
Hum
%
Delta-T
°C
Wind Press
QNH
hPa
Press
MSL
hPa
Rain since
9am
mm
Dir  Spd
km/h
Gust
km/h
Spd
kts
Gust
kts
20/11:30pm - - - - - N 9 13 5 7 - - -
20/11:00pm - - - - - NNE 9 15 5 8 - - -
20/10:30pm - - - - - E 13 17 7 9 - - -
20/10:00pm - - - - - E 13 17 7 9 - - -
20/09:30pm - - - - - E 11 17 6 9 - - -
20/09:00pm - - - - - E 13 20 7 11 - - -
20/08:30pm - - - - - E 13 19 7 10 - - -
20/08:00pm - - - - - E 13 19 7 10 - - -
20/07:30pm - - - - - ESE 13 17 7 9 - - -
20/07:00pm - - - - - ESE 15 22 8 12 - - -
20/06:30pm - - - - - ESE 20 32 11 17 - - -
20/06:00pm - - - - - E 22 33 12 18 - - -
20/05:30pm - - - - - S 19 28 10 15 - - -
20/05:00pm - - - - - S 30 35 16 19 - - -
20/04:30pm - - - - - S 30 41 16 22 - - -
20/04:00pm - - - - - S 28 35 15 19 - - -
20/03:30pm - - - - - S 26 35 14 19 - - -
20/03:00pm - - - - - ESE 17 26 9 14 - - -
20/02:30pm - - - - - E 15 28 8 15 - - -
20/02:00pm - - - - - ENE 15 30 8 16 - - -
20/01:30pm - - - - - E 20 30 11 16 - - -
20/01:00pm - - - - - E 22 32 12 17 - - -
20/12:30pm - - - - - E 17 32 9 17 - - -
20/12:00pm - - - - - ENE 19 28 10 15 - - -
20/11:30am - - - - - E 17 33 9 18 - - -
20/11:00am - - - - - NE 20 30 11 16 - - -
20/10:30am - - - - - ENE 20 33 11 18 - - -
20/10:00am - - - - - ENE 22 35 12 19 - - -
20/09:30am - - - - - ENE 20 32 11 17 - - -
20/09:00am - - - - - ENE 22 33 12 18 - - -
20/08:30am - - - - - ENE 22 32 12 17 - - -
20/08:00am - - - - - E 22 35 12 19 - - -
20/07:30am - - - - - E 20 32 11 17 - - -
20/07:00am - - - - - ENE 22 33 12 18 - - -
20/06:30am - - - - - E 17 24 9 13 - - -
20/06:00am - - - - - E 15 22 8 12 - - -
20/05:30am - - - - - E 19 30 10 16 - - -
20/05:00am - - - - - E 17 24 9 13 - - -
20/04:30am - - - - - ENE 13 19 7 10 - - -
20/04:00am - - - - - E 13 20 7 11 - - -
20/03:30am - - - - - E 13 17 7 9 - - -
20/03:00am - - - - - ENE 17 24 9 13 - - -
20/02:30am - - - - - E 15 24 8 13 - - -
20/02:00am - - - - - E 15 24 8 13 - - -
20/01:30am - - - - - E 17 26 9 14 - - -
20/01:00am - - - - - E 17 22 9 12 - - -
20/12:30am - - - - - E 15 22 8 12 - - -
20/12:00am - - - - - E 15 22 8 12 - - -
 
Date/Time
WST
Temp
°C
App
Temp
°C
Dew
Point
°C
Rel
Hum
%
Delta-T
°C
Wind Press
QNH
hPa
Press
MSL
hPa
Rain since
9am
mm
Dir  Spd
km/h
Gust
km/h
Spd
kts
Gust
kts
19/11:30pm - - - - - E 15 24 8 13 - - -
19/11:00pm - - - - - ENE 15 24 8 13 - - -
19/10:30pm - - - - - E 15 22 8 12 - - -
19/10:00pm - - - - - ENE 15 24 8 13 - - -
19/09:30pm - - - - - E 9 15 5 8 - - -
19/09:00pm - - - - - SSE 9 11 5 6 - - -
19/08:30pm - - - - - S 9 13 5 7 - - -
19/08:00pm - - - - - SSE 15 17 8 9 - - -
19/07:30pm - - - - - S 26 32 14 17 - - -
19/07:00pm - - - - - S 26 30 14 16 - - -
19/06:30pm - - - - - S 26 32 14 17 - - -
19/06:00pm - - - - - S 28 33 15 18 - - -
19/05:30pm - - - - - S 28 33 15 18 - - -
19/05:00pm - - - - - S 20 26 11 14 - - -
19/04:30pm - - - - - S 24 32 13 17 - - -
19/04:00pm - - - - - S 30 35 16 19 - - -
19/03:30pm - - - - - S 28 35 15 19 - - -
19/03:00pm - - - - - S 26 30 14 16 - - -
19/02:30pm - - - - - S 24 28 13 15 - - -
19/02:00pm - - - - - S 24 30 13 16 - - -
19/01:30pm - - - - - S 24 30 13 16 - - -
19/01:00pm - - - - - SSW 26 30 14 16 - - -
19/12:30pm - - - - - SSW 15 19 8 10 - - -
19/12:00pm - - - - - E 9 15 5 8 - - -

Other formats

Comma delimited format used in spreadsheet applications
http://www.bom.gov.au/fwo/IDW60801/IDW60801.94607.axf

JavaScript Object Notation format (JSON) in row-major order
http://www.bom.gov.au/fwo/IDW60801/IDW60801.94607.json

Data quality

Most of these data are generated automatically and are frequently updated. Quality checks on data are not normally performed. It is possible for incorrect values to appear. Refer to information at About Latest Weather Observations and please check the disclaimer before using these data.